Time;durP1;ratioP1;P1;durP2;ratioP2;P2;SDS_P1;SDS_P2;PMS_P1;PMS_P2;Temp;Humidity;BMP_temperature;BMP_pressure;BME280_temperature;BME280_humidity;BME280_pressure;Samples;Min_cycle;Max_cycle;Signal;HPM_P1;HPM_P2
2022/06/10 04:51:20;;;;;;;13.33;11.53;;;14.90;99.90;;;;;;5511930;23;20850;-76
2022/06/10 05:06:15;;;;;;;13.20;12.03;;;15.50;99.90;;;;;;4966594;28;20550;-77
2022/06/10 05:08:43;;;;;;;12.47;11.57;;;15.80;99.90;;;;;;4971210;28;20502;-77
2022/06/10 05:11:10;;;;;;;12.40;11.90;;;16.10;99.90;;;;;;4970215;28;20474;-77
2022/06/10 05:13:37;;;;;;;13.03;12.07;;;16.20;99.90;;;;;;4970774;28;20528;-77
2022/06/10 05:16:04;;;;;;;14.13;12.97;;;16.30;99.90;;;;;;4971176;28;20535;-79
2022/06/10 05:18:32;;;;;;;13.67;12.23;;;16.20;99.90;;;;;;4971583;28;20487;-75
2022/06/10 05:20:59;;;;;;;12.87;11.90;;;16.60;99.90;;;;;;4971373;28;20462;-77
2022/06/10 05:23:26;;;;;;;13.77;12.57;;;16.70;99.90;;;;;;4971083;28;20455;-77
2022/06/10 05:25:55;;;;;;;13.07;12.40;;;16.90;99.90;;;;;;4970876;28;20463;-75
2022/06/10 05:28:22;;;;;;;12.53;12.03;;;17.10;99.90;;;;;;4971418;28;20455;-77
2022/06/10 05:30:49;;;;;;;12.53;11.93;;;16.90;99.90;;;;;;4971461;28;20455;-78
2022/06/10 05:33:17;;;;;;;12.80;12.00;;;16.90;99.90;;;;;;4971505;28;20483;-79
2022/06/10 05:35:45;;;;;;;12.77;12.07;;;17.00;99.90;;;;;;4971487;28;20820;-80
2022/06/10 05:38:13;;;;;;;12.37;11.67;;;17.30;99.90;;;;;;4971835;28;20477;-80
2022/06/10 05:40:40;;;;;;;13.13;12.40;;;17.60;99.90;;;;;;4971430;28;20846;-79
2022/06/10 05:43:08;;;;;;;13.10;12.27;;;17.90;99.90;;;;;;4971241;28;20455;-78
2022/06/10 05:45:34;;;;;;;12.50;11.90;;;18.00;99.90;;;;;;4971075;28;20455;-79
2022/06/10 05:48:03;;;;;;;12.77;11.97;;;18.10;99.90;;;;;;4971303;28;20452;-82
2022/06/10 05:50:32;;;;;;;12.90;12.07;;;17.90;99.90;;;;;;4971598;28;20460;-79
2022/06/10 05:53:00;;;;;;;12.50;11.90;;;18.10;99.90;;;;;;4970953;28;20582;-79
2022/06/10 05:55:27;;;;;;;12.03;11.43;;;18.30;99.90;;;;;;4971095;28;20459;-77
2022/06/10 05:57:54;;;;;;;12.63;11.90;;;18.40;99.90;;;;;;4970995;28;20447;-80
2022/06/10 06:00:25;;;;;;;13.80;12.57;;;18.80;99.90;;;;;;4970593;28;20489;-77
2022/06/10 06:02:52;;;;;;;12.37;11.63;;;19.10;99.90;;;;;;4969740;28;20464;-78
2022/06/10 06:05:20;;;;;;;13.37;12.57;;;19.60;99.90;;;;;;4969340;28;20455;-78
2022/06/10 06:07:47;;;;;;;13.23;12.40;;;19.70;99.90;;;;;;4970882;28;20882;-78
2022/06/10 06:10:16;;;;;;;12.60;12.10;;;19.60;99.90;;;;;;4970880;28;20447;-78
2022/06/10 06:12:43;;;;;;;13.87;13.10;;;19.80;99.90;;;;;;4970930;28;20893;-79
2022/06/10 06:15:12;;;;;;;13.77;12.97;;;20.30;99.90;;;;;;4973469;28;20462;-78
2022/06/10 06:17:41;;;;;;;13.63;12.80;;;20.50;99.90;;;;;;4974418;28;20545;-78
2022/06/10 06:20:11;;;;;;;13.20;12.27;;;20.80;99.90;;;;;;4974247;28;20645;-79
2022/06/10 06:22:38;;;;;;;13.13;12.43;;;21.00;99.80;;;;;;4974296;28;20765;-79
2022/06/10 06:25:05;;;;;;;13.80;13.10;;;21.70;98.90;;;;;;4974221;28;20471;-79
2022/06/10 06:27:32;;;;;;;13.57;12.77;;;21.80;97.40;;;;;;4971227;28;20478;-81
2022/06/10 06:30:01;;;;;;;14.13;13.40;;;21.60;97.60;;;;;;4974608;28;20456;-81
2022/06/10 06:32:28;;;;;;;13.53;12.80;;;21.70;97.50;;;;;;4974372;28;20519;-79
2022/06/10 06:34:56;;;;;;;15.47;14.40;;;21.90;97.10;;;;;;4974162;28;20458;-79
2022/06/10 06:37:23;;;;;;;13.83;13.13;;;21.90;96.90;;;;;;4974276;28;20953;-81
2022/06/10 06:39:49;;;;;;;14.63;13.93;;;21.90;97.00;;;;;;4974014;28;20460;-86
2022/06/10 06:42:16;;;;;;;13.20;12.60;;;22.40;96.60;;;;;;4974106;28;20471;-79
2022/06/10 06:44:43;;;;;;;13.00;12.30;;;23.10;94.60;;;;;;4972998;28;20490;-78
2022/06/10 06:47:13;;;;;;;13.40;12.77;;;23.20;94.30;;;;;;4973607;28;20460;-77
2022/06/10 06:49:40;;;;;;;14.30;13.30;;;23.10;94.20;;;;;;4973440;28;20495;-79
2022/06/10 06:52:09;;;;;;;14.30;13.50;;;23.20;94.10;;;;;;4973438;28;20972;-81
2022/06/10 06:54:37;;;;;;;15.33;14.37;;;23.70;93.30;;;;;;4973313;28;20499;-80
2022/06/10 06:57:05;;;;;;;13.73;12.87;;;24.20;92.80;;;;;;4973467;28;20820;-79
2022/06/10 06:59:32;;;;;;;13.70;13.00;;;24.10;91.80;;;;;;4970715;28;20472;-78
2022/06/10 07:01:59;;;;;;;14.23;13.33;;;24.60;91.60;;;;;;4972387;28;20558;-78
2022/06/10 07:04:25;;;;;;;14.50;13.70;;;24.80;90.80;;;;;;4972747;28;20996;-79
2022/06/10 07:06:52;;;;;;;15.23;14.23;;;25.10;90.20;;;;;;4972280;28;20877;-79
2022/06/10 07:09:21;;;;;;;14.73;14.03;;;25.40;88.60;;;;;;4973141;28;20508;-80
2022/06/10 07:11:48;;;;;;;14.10;13.30;;;25.70;87.10;;;;;;4973007;28;20836;-79
2022/06/10 07:14:16;;;;;;;14.23;13.33;;;25.90;85.60;;;;;;4973304;28;20880;-79
2022/06/10 07:16:43;;;;;;;14.50;13.60;;;25.20;87.40;;;;;;4973263;28;20458;-79
2022/06/10 07:19:11;;;;;;;13.10;12.40;;;24.40;89.00;;;;;;4972743;28;20813;-79
2022/06/10 07:21:37;;;;;;;14.40;13.60;;;24.40;90.40;;;;;;4972921;28;20474;-79
2022/06/10 07:24:05;;;;;;;13.77;12.97;;;24.10;91.00;;;;;;4972692;28;20817;-79
2022/06/10 07:26:33;;;;;;;13.50;12.80;;;24.70;90.50;;;;;;4972899;28;20447;-79
2022/06/10 07:29:00;;;;;;;15.10;14.10;;;25.20;87.80;;;;;;4972994;28;20448;-79
2022/06/10 07:31:26;;;;;;;14.27;13.13;;;25.20;87.00;;;;;;4972763;28;20825;-80
2022/06/10 07:33:53;;;;;;;12.90;12.20;;;25.80;86.60;;;;;;4972963;28;20491;-80
2022/06/10 07:36:20;;;;;;;14.13;13.20;;;26.50;84.30;;;;;;4972888;28;20819;-80
2022/06/10 07:38:47;;;;;;;14.03;13.30;;;26.80;84.10;;;;;;4973140;28;20451;-80
2022/06/10 07:43:59;;;;;;;14.50;13.60;;;26.80;81.10;;;;;;4972790;28;20434;-79
2022/06/10 07:46:26;;;;;;;14.20;13.50;;;27.10;82.10;;;;;;4972394;28;20819;-80
2022/06/10 07:48:53;;;;;;;13.90;13.20;;;27.70;79.40;;;;;;4972300;28;20456;-79
2022/06/10 07:51:20;;;;;;;14.63;13.77;;;27.70;79.40;;;;;;4972396;28;20456;-78
2022/06/10 07:53:47;;;;;;;14.20;13.20;;;28.30;78.00;;;;;;4972607;28;20510;-77
2022/06/10 07:56:16;;;;;;;13.53;12.60;;;28.80;75.00;;;;;;4972366;28;20574;-78
2022/06/10 07:58:44;;;;;;;13.87;12.97;;;29.10;73.00;;;;;;4972192;28;20487;-79
2022/06/10 08:01:12;;;;;;;13.53;12.83;;;28.50;73.40;;;;;;4972015;28;20456;-80
2022/06/10 08:03:39;;;;;;;14.67;13.67;;;28.50;72.20;;;;;;4972149;28;20489;-79
2022/06/10 08:06:06;;;;;;;13.83;13.10;;;28.70;73.20;;;;;;4971744;28;20483;-79
2022/06/10 08:08:33;;;;;;;14.27;13.37;;;29.10;70.20;;;;;;4972245;28;20467;-80
2022/06/10 08:11:00;;;;;;;15.00;13.80;;;29.30;68.70;;;;;;4972387;28;20455;-80
2022/06/10 08:13:27;;;;;;;14.30;13.20;;;29.30;67.80;;;;;;4972057;28;20487;-79
2022/06/10 08:15:54;;;;;;;13.40;12.53;;;30.10;65.90;;;;;;4971893;28;20452;-80
2022/06/10 08:18:22;;;;;;;14.30;13.60;;;30.60;63.10;;;;;;4971678;28;20455;-80
2022/06/10 08:23:34;;;;;;;13.43;12.50;;;30.40;60.70;;;;;;4972121;28;20458;-79
2022/06/10 08:26:06;;;;;;;14.37;13.83;;;30.30;61.60;;;;;;4972152;28;20515;-78
2022/06/10 08:28:32;;;;;;;14.90;13.93;;;30.60;60.00;;;;;;4972048;28;20559;-82
2022/06/10 08:30:59;;;;;;;13.80;12.87;;;30.60;60.00;;;;;;4971886;28;20498;-79
2022/06/10 08:33:27;;;;;;;13.47;12.70;;;30.60;60.70;;;;;;4971702;28;20487;-79
2022/06/10 08:35:54;;;;;;;14.37;13.77;;;30.60;60.40;;;;;;4971361;28;20456;-80
2022/06/10 08:38:21;;;;;;;13.63;13.03;;;31.00;57.70;;;;;;4971469;28;20456;-80
2022/06/10 08:40:53;;;;;;;14.17;13.53;;;31.00;57.20;;;;;;4972745;28;20502;-79
2022/06/10 08:43:34;;;;;;;15.00;13.80;;;31.60;57.10;;;;;;4971752;28;20507;-80
2022/06/10 08:46:09;;;;;;;14.67;13.77;;;32.00;55.30;;;;;;4971859;28;20813;-80
2022/06/10 08:48:49;;;;;;;14.70;13.90;;;32.30;54.30;;;;;;4971573;28;20455;-81
2022/06/10 08:51:21;;;;;;;14.17;13.57;;;32.80;52.90;;;;;;4971705;28;20502;-80
2022/06/10 08:54:08;;;;;;;14.03;13.43;;;33.10;50.90;;;;;;4971907;28;20491;-81
2022/06/10 08:56:36;;;;;;;14.13;13.53;;;32.70;51.50;;;;;;4971903;28;20534;-80
2022/06/10 08:59:13;;;;;;;13.77;12.93;;;32.20;52.50;;;;;;4971836;28;20968;-80
2022/06/10 09:01:48;;;;;;;13.13;12.43;;;32.50;52.10;;;;;;4971591;28;20498;-81
2022/06/10 09:04:27;;;;;;;13.90;13.27;;;32.70;50.80;;;;;;4972003;28;20565;-81
2022/06/10 09:06:57;;;;;;;14.37;13.43;;;32.70;51.10;;;;;;4970374;28;20490;-81
2022/06/10 09:09:27;;;;;;;14.90;14.13;;;32.60;50.30;;;;;;4971624;28;20458;-81
2022/06/10 09:12:00;;;;;;;14.57;13.77;;;32.90;50.20;;;;;;4971689;28;20461;-81
2022/06/10 09:14:28;;;;;;;14.27;13.57;;;33.40;49.40;;;;;;4972266;28;20522;-81
2022/06/10 09:17:02;;;;;;;14.30;13.50;;;33.30;49.70;;;;;;4971929;28;20902;-82
2022/06/10 09:19:41;;;;;;;14.30;13.57;;;33.20;50.20;;;;;;4972139;28;20547;-81
2022/06/10 09:22:16;;;;;;;14.20;13.30;;;33.20;50.10;;;;;;4971674;28;20836;-81
2022/06/10 09:24:48;;;;;;;14.53;13.93;;;32.90;50.40;;;;;;4969741;28;20450;-80
2022/06/10 09:27:21;;;;;;;15.87;14.80;;;33.10;49.70;;;;;;4971334;28;20463;-81
2022/06/10 09:29:48;;;;;;;14.43;13.70;;;32.90;49.50;;;;;;4971624;28;20491;-83
2022/06/10 09:32:23;;;;;;;14.57;13.87;;;33.10;49.00;;;;;;4971613;28;20452;-82
2022/06/10 09:35:00;;;;;;;14.73;14.03;;;33.50;48.20;;;;;;4970999;28;20485;-82
2022/06/10 09:37:36;;;;;;;15.67;14.67;;;34.00;44.70;;;;;;4969956;28;20447;-83
2022/06/10 09:43:19;;;;;;;12.80;12.30;;;31.90;46.50;;;;;;4971252;28;20427;-83
2022/06/10 09:45:51;;;;;;;14.40;13.77;;;31.70;47.00;;;;;;4958298;28;20460;-83
2022/06/10 09:48:36;;;;;;;14.43;13.77;;;31.70;46.50;;;;;;4972853;28;20447;-82
2022/06/10 09:51:14;;;;;;;14.33;13.60;;;31.60;46.90;;;;;;4975095;28;20459;-81
2022/06/10 09:53:59;;;;;;;13.47;12.63;;;31.80;46.90;;;;;;4975144;28;20466;-80
2022/06/10 09:56:44;;;;;;;13.67;12.93;;;31.70;48.00;;;;;;4974717;28;20451;-80
2022/06/10 09:59:20;;;;;;;14.50;13.70;;;32.70;47.50;;;;;;4974660;28;20448;-82
2022/06/10 10:01:59;;;;;;;14.07;13.27;;;33.60;44.40;;;;;;4980754;28;20471;-82
2022/06/10 10:04:48;;;;;;;14.70;13.93;;;33.00;44.30;;;;;;4974529;28;20451;-84
2022/06/10 10:07:25;;;;;;;13.87;13.13;;;32.80;45.70;;;;;;4957788;28;20490;-83
2022/06/10 10:10:02;;;;;;;14.50;13.80;;;33.40;44.10;;;;;;4974016;28;20955;-82
2022/06/10 10:12:39;;;;;;;14.27;13.60;;;34.80;41.50;;;;;;4974409;28;20455;-82
2022/06/10 10:15:17;;;;;;;14.43;13.73;;;34.30;42.50;;;;;;4973948;28;20494;-82
2022/06/10 10:18:03;;;;;;;14.30;13.70;;;34.70;41.80;;;;;;4974073;28;20455;-83
2022/06/10 10:20:43;;;;;;;14.70;14.00;;;35.50;39.40;;;;;;4973860;28;20517;-81
2022/06/10 10:23:13;;;;;;;14.40;13.70;;;33.80;39.60;;;;;;4973523;28;20492;-80
2022/06/10 10:25:44;;;;;;;14.30;13.20;;;32.90;41.00;;;;;;4973743;28;20505;-80
2022/06/10 10:28:18;;;;;;;14.67;13.87;;;31.80;43.60;;;;;;4974076;28;20456;-81
2022/06/10 10:30:48;;;;;;;14.00;13.37;;;31.40;46.10;;;;;;4974129;28;20491;-81
2022/06/10 10:33:16;;;;;;;13.70;13.00;;;31.70;45.30;;;;;;4974093;28;20440;-81
2022/06/10 10:35:45;;;;;;;14.03;13.33;;;32.30;44.90;;;;;;4973945;28;20491;-81
2022/06/10 10:38:16;;;;;;;14.13;13.33;;;31.90;45.40;;;;;;4974216;28;20456;-82
2022/06/10 10:40:46;;;;;;;13.90;13.17;;;32.50;45.20;;;;;;4973965;28;20456;-80
2022/06/10 10:43:17;;;;;;;13.70;13.00;;;32.70;44.10;;;;;;4974349;28;20945;-81
2022/06/10 10:45:55;;;;;;;14.30;13.57;;;32.30;45.00;;;;;;4973839;28;20475;-81
2022/06/10 10:48:25;;;;;;;14.27;13.57;;;31.50;45.80;;;;;;4973816;28;20455;-81
2022/06/10 10:50:56;;;;;;;12.67;11.93;;;31.40;45.10;;;;;;4973651;28;20452;-81
2022/06/10 10:53:29;;;;;;;13.83;13.13;;;32.30;44.10;;;;;;4973424;28;20448;-82
2022/06/10 10:55:58;;;;;;;13.73;13.13;;;32.90;43.80;;;;;;4973316;28;20578;-82
2022/06/10 10:58:29;;;;;;;14.33;13.40;;;33.50;42.50;;;;;;4973271;28;20444;-82
2022/06/10 11:00:59;;;;;;;14.07;13.47;;;33.50;41.40;;;;;;4972580;28;20447;-81
2022/06/10 11:03:29;;;;;;;14.00;13.30;;;32.50;43.20;;;;;;4973369;28;20456;-83
2022/06/10 11:05:58;;;;;;;13.53;13.00;;;33.30;42.30;;;;;;4973397;28;20483;-82
2022/06/10 11:08:30;;;;;;;14.70;13.90;;;33.40;41.10;;;;;;4973506;28;20456;-82
2022/06/10 11:11:04;;;;;;;14.03;13.20;;;32.50;41.80;;;;;;4973442;28;20455;-83
2022/06/10 11:13:54;;;;;;;14.10;13.40;;;31.70;43.80;;;;;;4973645;28;20461;-84
2022/06/10 11:16:43;;;;;;;14.57;13.60;;;31.90;43.60;;;;;;4973452;28;20455;-83
2022/06/10 11:19:19;;;;;;;13.13;12.63;;;32.00;43.00;;;;;;4972799;28;20474;-84
2022/06/10 11:21:55;;;;;;;14.70;13.70;;;32.50;42.10;;;;;;4973209;28;20451;-84
2022/06/10 11:24:29;;;;;;;14.73;13.90;;;33.10;42.00;;;;;;4972865;28;20786;-84
2022/06/10 11:26:58;;;;;;;13.90;13.30;;;33.80;41.50;;;;;;4972655;28;20447;-85
2022/06/10 11:29:26;;;;;;;14.20;13.50;;;34.30;40.20;;;;;;4972720;28;20483;-85
2022/06/10 11:31:56;;;;;;;13.70;13.10;;;34.80;40.80;;;;;;4973108;28;20450;-84
2022/06/10 11:34:29;;;;;;;13.40;12.60;;;33.80;42.00;;;;;;4972869;28;20491;-84
2022/06/10 11:36:56;;;;;;;14.23;13.40;;;34.50;41.00;;;;;;4972968;28;20956;-85
2022/06/10 11:39:27;;;;;;;14.33;13.73;;;35.90;38.80;;;;;;4972884;28;20467;-84
2022/06/10 11:42:10;;;;;;;14.13;13.53;;;35.40;38.10;;;;;;4973019;28;20452;-84
2022/06/10 11:44:44;;;;;;;14.33;13.53;;;34.60;38.70;;;;;;4973098;28;20455;-84
2022/06/10 11:47:16;;;;;;;14.93;13.93;;;34.20;38.40;;;;;;4972817;28;20466;-84
2022/06/10 11:49:50;;;;;;;13.53;12.90;;;34.80;38.60;;;;;;4972851;28;20440;-84
2022/06/10 11:52:23;;;;;;;14.33;13.63;;;34.70;38.30;;;;;;4972719;28;20459;-83
2022/06/10 11:54:56;;;;;;;14.27;13.57;;;34.80;37.70;;;;;;4972675;28;20494;-84
2022/06/10 12:00:21;;;;;;;13.20;12.60;;;33.30;38.50;;;;;;4972763;28;20451;-83
2022/06/10 12:02:55;;;;;;;13.13;12.40;;;31.70;40.60;;;;;;4972508;28;20482;-83
2022/06/10 12:05:31;;;;;;;13.97;13.17;;;31.10;41.50;;;;;;4972205;28;20455;-83
2022/06/10 12:08:07;;;;;;;12.97;12.37;;;31.10;41.80;;;;;;4972904;28;20459;-84
2022/06/10 12:10:46;;;;;;;13.67;12.97;;;31.50;41.50;;;;;;4972448;28;20775;-85
2022/06/10 12:13:15;;;;;;;13.20;12.70;;;32.20;40.70;;;;;;4972451;28;20889;-84
2022/06/10 12:15:49;;;;;;;13.33;12.70;;;32.80;40.00;;;;;;4972282;28;20499;-82
2022/06/10 12:18:18;;;;;;;13.70;13.10;;;32.10;40.10;;;;;;4972402;28;20448;-82
2022/06/10 12:20:48;;;;;;;13.30;12.70;;;30.10;42.00;;;;;;4972364;28;20459;-84
2022/06/10 12:23:17;;;;;;;13.63;12.83;;;29.90;42.50;;;;;;4971023;28;20456;-81
2022/06/10 12:25:53;;;;;;;13.33;12.33;;;30.40;42.90;;;;;;4972207;28;21037;-85
2022/06/10 12:28:30;;;;;;;12.93;12.33;;;30.80;42.10;;;;;;4971991;28;20955;-85
2022/06/10 12:31:02;;;;;;;13.07;12.47;;;30.60;42.30;;;;;;4972297;28;20447;-85
2022/06/10 12:33:37;;;;;;;12.70;12.20;;;32.20;41.10;;;;;;4972381;28;20459;-85
2022/06/10 12:36:06;;;;;;;12.97;12.43;;;33.10;38.80;;;;;;4971933;28;20495;-84
2022/06/10 12:38:37;;;;;;;12.50;12.00;;;32.00;40.30;;;;;;4972039;28;20519;-83
2022/06/10 12:41:11;;;;;;;12.87;12.23;;;30.80;41.70;;;;;;4972002;28;20448;-83
2022/06/10 12:43:42;;;;;;;13.70;13.00;;;31.10;41.50;;;;;;4971886;28;20990;-84
2022/06/10 12:46:31;;;;;;;13.87;13.27;;;32.30;40.20;;;;;;4971983;28;20448;-83
2022/06/10 12:48:58;;;;;;;14.23;13.53;;;33.00;39.70;;;;;;4971814;28;20954;-83
2022/06/10 12:51:36;;;;;;;14.10;13.30;;;34.10;38.60;;;;;;4971998;28;20452;-83
2022/06/10 12:54:19;;;;;;;13.30;12.73;;;34.80;37.60;;;;;;4972129;28;20455;-83
2022/06/10 12:56:46;;;;;;;14.20;13.50;;;34.50;37.40;;;;;;4972020;28;20945;-84
2022/06/10 12:59:24;;;;;;;13.80;13.10;;;34.50;36.70;;;;;;4971794;28;20463;-84
2022/06/10 13:01:52;;;;;;;13.40;12.73;;;34.50;36.80;;;;;;4971511;28;20569;-84
2022/06/10 13:04:52;;;;;;;13.10;12.60;;;34.80;37.40;;;;;;4971538;28;20518;-83
2022/06/10 13:07:28;;;;;;;14.10;13.50;;;34.40;37.40;;;;;;4971221;28;20490;-84
2022/06/10 13:10:15;;;;;;;14.60;13.97;;;33.10;38.40;;;;;;4971606;28;20778;-85
2022/06/10 13:12:42;;;;;;;13.80;13.10;;;33.10;38.80;;;;;;4971442;28;20451;-85
2022/06/10 13:15:17;;;;;;;14.07;13.47;;;33.80;37.80;;;;;;4971254;28;20494;-82
2022/06/10 13:17:56;;;;;;;13.80;13.20;;;33.50;38.70;;;;;;4971548;28;20962;-83
2022/06/10 13:20:27;;;;;;;13.20;12.60;;;33.20;39.10;;;;;;4970948;28;20675;-82
2022/06/10 13:23:20;;;;;;;14.40;13.27;;;32.30;38.80;;;;;;4972160;28;20475;-82
2022/06/10 13:25:52;;;;;;;14.07;13.20;;;30.20;40.90;;;;;;4975369;28;20490;-80
2022/06/10 13:28:23;;;;;;;13.30;12.67;;;29.80;41.80;;;;;;4975475;28;20460;-81
2022/06/10 13:31:01;;;;;;;13.20;12.53;;;30.10;40.50;;;;;;4975382;28;20796;-82
2022/06/10 13:33:28;;;;;;;13.37;12.70;;;29.80;41.30;;;;;;4973947;28;20451;-80
2022/06/10 13:35:56;;;;;;;12.60;12.10;;;29.00;43.20;;;;;;4975159;28;20494;-83
2022/06/10 13:38:28;;;;;;;13.33;12.63;;;28.20;44.50;;;;;;4975112;28;20478;-81
2022/06/10 13:41:48;;;;;;;13.43;12.70;;;28.20;44.90;;;;;;4974988;28;20608;-80
2022/06/10 13:43:47;;;;;;;12.97;12.37;;;29.40;43.50;;;;;;4975121;28;20503;-83
2022/06/10 13:46:21;;;;;;;13.80;13.20;;;30.60;42.80;;;;;;4975561;28;20499;-82
2022/06/10 13:48:48;;;;;;;13.87;13.37;;;31.70;42.10;;;;;;4975217;28;20451;-83
2022/06/10 13:51:32;;;;;;;13.80;13.10;;;32.70;40.80;;;;;;4975138;28;20455;-81
2022/06/10 13:54:03;;;;;;;13.30;12.80;;;33.40;38.80;;;;;;4975250;28;20443;-82
2022/06/10 13:56:34;;;;;;;13.23;12.60;;;33.30;38.80;;;;;;4974631;28;20483;-80
2022/06/10 13:59:02;;;;;;;13.50;13.00;;;32.90;38.00;;;;;;4974723;28;20476;-80
2022/06/10 14:01:32;;;;;;;13.20;12.40;;;32.60;38.30;;;;;;4974703;28;20514;-80
2022/06/10 14:04:04;;;;;;;13.60;13.00;;;32.30;38.60;;;;;;4974581;28;20463;-80
2022/06/10 14:06:34;;;;;;;13.30;12.70;;;32.80;38.70;;;;;;4974706;28;21001;-80
2022/06/10 14:09:07;;;;;;;13.70;12.90;;;33.10;38.00;;;;;;4974720;28;20459;-80
2022/06/10 14:11:38;;;;;;;13.00;12.60;;;33.60;37.80;;;;;;4974689;28;20459;-80
2022/06/10 14:14:15;;;;;;;13.00;12.30;;;33.20;37.70;;;;;;4974762;28;20458;-80
2022/06/10 14:16:44;;;;;;;13.50;13.00;;;32.20;37.90;;;;;;4974150;28;21040;-78
2022/06/10 14:19:14;;;;;;;11.87;11.37;;;31.00;39.50;;;;;;4974232;28;20452;-80
2022/06/10 14:21:42;;;;;;;13.30;12.70;;;30.90;41.00;;;;;;4974604;28;20829;-81
2022/06/10 14:24:18;;;;;;;13.67;13.10;;;31.00;41.40;;;;;;4973942;28;20466;-80
2022/06/10 14:26:53;;;;;;;13.30;12.90;;;31.00;40.90;;;;;;4974192;28;20451;-80
2022/06/10 14:29:22;;;;;;;12.80;12.30;;;31.80;39.60;;;;;;4974284;28;20932;-81
2022/06/10 14:31:57;;;;;;;12.73;12.23;;;31.90;39.70;;;;;;4974895;28;20456;-82
2022/06/10 14:34:26;;;;;;;12.90;12.40;;;31.70;39.70;;;;;;4973141;28;20474;-82
2022/06/10 14:37:01;;;;;;;14.10;13.50;;;31.00;40.60;;;;;;4973940;28;20487;-81
2022/06/10 14:39:30;;;;;;;13.80;13.20;;;30.50;41.40;;;;;;4974734;28;20470;-81
2022/06/10 14:42:00;;;;;;;13.97;13.43;;;31.00;40.60;;;;;;4974368;28;20487;-80
2022/06/10 14:44:30;;;;;;;13.63;13.00;;;31.30;39.70;;;;;;4974208;28;20462;-80
2022/06/10 14:47:16;;;;;;;14.03;13.27;;;31.10;39.80;;;;;;4973827;28;20463;-80
2022/06/10 14:49:54;;;;;;;14.53;13.60;;;31.10;39.90;;;;;;4970491;28;20471;-80
2022/06/10 14:52:26;;;;;;;13.80;13.20;;;31.30;39.10;;;;;;4973930;28;20562;-80
2022/06/10 14:54:54;;;;;;;12.63;12.13;;;30.80;39.30;;;;;;4973520;28;20455;-80
2022/06/10 14:57:24;;;;;;;12.30;11.90;;;30.70;39.50;;;;;;4973222;28;20495;-80
2022/06/10 14:59:51;;;;;;;13.13;12.53;;;31.00;40.40;;;;;;4973299;28;20914;-80
2022/06/10 15:02:19;;;;;;;12.10;11.60;;;30.50;40.50;;;;;;4973530;28;20480;-80
2022/06/10 15:07:34;;;;;;;12.20;11.60;;;29.00;41.00;;;;;;4973650;28;20562;-81
2022/06/10 15:10:05;;;;;;;13.17;12.43;;;28.30;41.40;;;;;;4973600;28;20522;-79
2022/06/10 15:12:33;;;;;;;11.97;11.47;;;27.90;41.80;;;;;;4973319;28;20456;-79
2022/06/10 15:15:00;;;;;;;11.27;10.87;;;27.60;43.70;;;;;;4972091;28;20490;-78
2022/06/10 15:17:30;;;;;;;12.30;11.80;;;27.40;43.50;;;;;;4973234;28;20518;-79
2022/06/10 15:19:57;;;;;;;12.50;12.00;;;27.10;43.60;;;;;;4973217;28;20459;-78
2022/06/10 15:22:28;;;;;;;12.50;11.90;;;26.50;44.70;;;;;;4972890;28;20455;-80
2022/06/10 15:24:55;;;;;;;12.77;12.27;;;26.10;45.90;;;;;;4973154;28;20455;-79
2022/06/10 15:27:22;;;;;;;12.20;11.60;;;25.60;46.90;;;;;;4973382;28;20463;-80
2022/06/10 15:29:49;;;;;;;12.47;11.90;;;25.20;47.00;;;;;;4973044;28;20447;-79
2022/06/10 15:32:18;;;;;;;11.50;11.10;;;25.10;47.90;;;;;;4973595;28;20476;-78
2022/06/10 15:43:04;;;;;;;12.40;11.80;;;25.00;48.30;;;;;;4972960;28;20948;-79
2022/06/10 15:45:31;;;;;;;11.97;11.50;;;25.10;47.90;;;;;;4972562;28;20495;-79
2022/06/10 15:47:58;;;;;;;12.90;12.20;;;25.20;48.20;;;;;;4972923;28;20808;-78
2022/06/10 15:50:28;;;;;;;11.93;11.53;;;25.40;48.60;;;;;;4973047;28;20455;-77
2022/06/10 15:52:55;;;;;;;11.67;11.17;;;25.60;48.50;;;;;;4972527;28;20852;-79
2022/06/10 15:58:17;;;;;;;12.00;11.60;;;26.10;47.00;;;;;;4973075;28;20484;-76
2022/06/10 16:00:46;;;;;;;10.90;10.50;;;26.10;47.00;;;;;;4972615;28;20462;-77
2022/06/10 16:03:14;;;;;;;11.10;10.70;;;26.10;47.60;;;;;;4972084;28;20846;-78
2022/06/10 16:05:44;;;;;;;11.40;10.80;;;25.90;48.80;;;;;;4972304;28;20587;-79
2022/06/10 16:08:12;;;;;;;11.60;11.20;;;25.70;50.30;;;;;;4972152;28;20451;-78
2022/06/10 16:10:41;;;;;;;11.63;11.13;;;25.80;49.70;;;;;;4972027;28;20462;-79
2022/06/10 16:13:15;;;;;;;11.90;11.30;;;26.00;49.70;;;;;;4972337;28;20451;-79
2022/06/10 16:15:47;;;;;;;11.87;11.37;;;26.10;48.60;;;;;;4972189;28;20546;-78
2022/06/10 16:18:18;;;;;;;11.90;11.40;;;25.90;48.80;;;;;;4972367;28;20455;-79
2022/06/10 16:20:48;;;;;;;11.90;11.40;;;25.60;49.50;;;;;;4972132;28;20474;-79
2022/06/10 16:23:16;;;;;;;11.60;11.10;;;25.50;49.50;;;;;;4971817;28;20456;-77
2022/06/10 16:25:48;;;;;;;12.00;11.30;;;25.40;50.10;;;;;;4972352;28;20456;-79
2022/06/10 16:28:15;;;;;;;11.40;10.80;;;25.10;51.30;;;;;;4972668;28;20865;-80
2022/06/10 16:30:44;;;;;;;12.00;11.30;;;25.00;52.90;;;;;;4971628;28;20448;-80
2022/06/10 16:33:15;;;;;;;11.47;10.90;;;25.10;52.90;;;;;;4971896;28;20631;-80
2022/06/10 16:35:42;;;;;;;11.53;11.13;;;25.00;51.30;;;;;;4970020;28;20539;-81
2022/06/10 16:38:16;;;;;;;12.10;11.60;;;24.90;53.60;;;;;;4972038;28;20455;-81
2022/06/10 16:40:44;;;;;;;11.53;11.13;;;24.70;54.80;;;;;;4971838;28;20487;-79
2022/06/10 16:43:14;;;;;;;11.53;10.90;;;24.80;55.40;;;;;;4971666;28;20506;-80
2022/06/10 16:45:41;;;;;;;11.30;10.87;;;24.80;55.80;;;;;;4971515;28;20547;-80
2022/06/10 16:48:14;;;;;;;11.80;11.30;;;24.70;55.40;;;;;;4971407;28;20447;-80
2022/06/10 16:50:41;;;;;;;12.07;11.47;;;24.60;56.10;;;;;;4971403;28;20495;-80
2022/06/10 16:53:08;;;;;;;14.03;12.77;;;24.50;56.50;;;;;;4971952;28;20589;-79
2022/06/10 16:55:36;;;;;;;12.53;11.73;;;24.30;56.70;;;;;;4971507;28;20797;-79
2022/06/10 16:58:02;;;;;;;12.47;11.77;;;24.20;57.10;;;;;;4971159;28;20456;-79
2022/06/10 17:00:33;;;;;;;11.07;10.57;;;24.10;57.40;;;;;;4971193;28;20456;-80
2022/06/10 17:03:02;;;;;;;12.03;11.43;;;24.10;57.70;;;;;;4971467;28;20495;-80
2022/06/10 17:05:31;;;;;;;11.83;11.23;;;24.10;58.30;;;;;;4971467;28;20448;-80
2022/06/10 17:07:58;;;;;;;11.73;11.13;;;24.10;58.30;;;;;;4971755;28;20451;-81
2022/06/10 17:10:27;;;;;;;11.20;10.60;;;24.00;58.90;;;;;;4971507;28;20462;-80
2022/06/10 17:12:58;;;;;;;10.20;9.67;;;24.00;59.20;;;;;;4971672;28;20490;-79
2022/06/10 17:15:28;;;;;;;11.57;10.67;;;24.00;58.50;;;;;;4971224;28;20456;-79
2022/06/10 17:17:55;;;;;;;11.60;11.00;;;24.10;59.00;;;;;;4970996;28;20499;-78
2022/06/10 17:20:27;;;;;;;10.83;10.43;;;24.00;58.60;;;;;;4971238;28;20462;-78
2022/06/10 17:22:54;;;;;;;12.20;11.20;;;24.00;58.50;;;;;;4970835;28;20551;-78
2022/06/10 17:25:21;;;;;;;11.27;10.77;;;23.90;58.80;;;;;;4971016;28;20458;-78
2022/06/10 17:27:49;;;;;;;11.77;11.27;;;23.80;59.40;;;;;;4971254;28;20475;-78
2022/06/10 17:30:28;;;;;;;11.13;10.73;;;23.70;59.70;;;;;;4971315;28;20463;-79
2022/06/10 17:32:55;;;;;;;11.23;10.77;;;23.70;59.90;;;;;;4971034;28;20456;-79
2022/06/10 17:35:22;;;;;;;12.27;11.20;;;23.60;60.00;;;;;;4971039;28;20463;-79
2022/06/10 17:37:50;;;;;;;11.63;11.03;;;23.60;60.70;;;;;;4971057;28;20499;-78
2022/06/10 17:40:17;;;;;;;11.47;10.97;;;23.60;60.30;;;;;;4970953;28;20452;-78
2022/06/10 17:42:48;;;;;;;11.80;11.30;;;23.60;60.70;;;;;;4971094;28;20486;-79
2022/06/10 17:45:17;;;;;;;11.73;10.93;;;23.60;60.70;;;;;;4971254;28;20462;-78
2022/06/10 17:47:45;;;;;;;11.80;11.20;;;23.60;61.40;;;;;;4970993;28;20459;-78
2022/06/10 17:50:19;;;;;;;11.10;10.50;;;23.60;62.00;;;;;;4970769;28;20463;-77
2022/06/10 17:52:47;;;;;;;10.70;10.20;;;23.50;62.60;;;;;;4971145;28;20448;-79
2022/06/10 17:55:15;;;;;;;12.00;11.20;;;23.40;62.90;;;;;;4971025;28;20456;-78
2022/06/10 17:57:45;;;;;;;11.73;11.13;;;23.30;62.80;;;;;;4970693;28;20488;-79
2022/06/10 18:00:22;;;;;;;11.50;10.70;;;23.30;63.50;;;;;;4969517;28;20456;-79
2022/06/10 18:02:52;;;;;;;11.43;10.80;;;23.30;63.20;;;;;;4970888;28;20530;-78
2022/06/10 18:05:22;;;;;;;11.00;10.40;;;23.30;63.40;;;;;;4970402;28;20471;-78
2022/06/10 18:07:51;;;;;;;11.50;10.90;;;23.30;63.70;;;;;;4970679;28;21041;-79
2022/06/10 18:10:18;;;;;;;11.60;10.63;;;23.10;64.00;;;;;;4973747;28;20850;-80
2022/06/10 18:12:50;;;;;;;10.43;9.83;;;23.10;64.20;;;;;;4974222;28;20470;-79
2022/06/10 18:15:17;;;;;;;11.40;10.70;;;23.00;64.60;;;;;;4974402;28;20455;-78